Time;durP1;ratioP1;P1;durP2;ratioP2;P2;SDS_P1;SDS_P2;PMS_P1;PMS_P2;Temp;Humidity;BMP_temperature;BMP_pressure;BME280_temperature;BME280_humidity;BME280_pressure;Samples;Min_cycle;Max_cycle;Signal;HPM_P1;HPM_P2
2022/07/22 00:02:24;;;;;;;14.57;8.53;;;;;;;21.98;65.15;98795.84;4967297;28;20220;-88
2022/07/22 00:04:49;;;;;;;10.87;6.80;;;;;;;22.55;64.76;98902.66;4977383;28;20189;-88
2022/07/22 00:07:15;;;;;;;9.77;6.27;;;;;;;24.56;64.93;99231.59;4976148;28;20254;-87
2022/07/22 00:09:41;;;;;;;9.77;6.80;;;;;;;21.61;64.65;98738.72;4976593;28;20176;-87
2022/07/22 00:12:07;;;;;;;10.77;6.70;;;;;;;22.64;65.43;98949.84;4976346;28;20566;-87
2022/07/22 00:14:32;;;;;;;9.30;7.10;;;;;;;22.63;65.14;98944.69;4978103;28;20200;-87
2022/07/22 00:16:58;;;;;;;10.17;6.50;;;;;;;21.76;65.78;98800.34;4975388;28;20179;-88
2022/07/22 00:19:24;;;;;;;9.93;6.53;;;;;;;22.01;66.25;98875.72;4975130;28;20176;-88
2022/07/22 00:21:50;;;;;;;9.53;6.70;;;;;;;21.64;66.20;98806.53;4976806;28;20187;-88
2022/07/22 00:24:16;;;;;;;8.20;6.70;;;;;;;22.90;66.43;99038.19;4975278;28;20191;-88
2022/07/22 00:26:42;;;;;;;9.13;6.43;;;;;;;23.67;66.38;99118.19;4976200;28;20204;-88
2022/07/22 00:29:07;;;;;;;10.17;6.83;;;;;;;20.74;66.52;98632.31;4974645;28;20179;-87
2022/07/22 00:31:33;;;;;;;10.17;6.07;;;;;;;20.32;66.45;98577.81;4975352;28;20191;-87
2022/07/22 00:34:01;;;;;;;18.83;9.63;;;;;;;20.70;68.24;98634.03;4978878;28;20621;-87
2022/07/22 00:36:26;;;;;;;13.70;8.37;;;;;;;21.89;69.07;98863.00;4975684;28;20179;-86
2022/07/22 00:38:52;;;;;;;14.80;8.10;;;;;;;22.88;68.96;99011.50;4976003;28;20180;-88
2022/07/22 00:41:17;;;;;;;10.30;8.30;;;;;;;22.74;69.79;99023.69;4975785;28;20218;-88
2022/07/22 00:43:50;;;;;;;11.17;7.50;;;;;;;24.17;68.98;99236.50;4974623;28;20176;-87
2022/07/22 00:46:15;;;;;;;20.97;9.10;;;;;;;21.70;68.43;98824.47;4990242;28;20625;-87
2022/07/22 00:48:41;;;;;;;17.80;11.00;;;;;;;20.56;69.97;98623.88;4976405;28;20176;-89
2022/07/22 00:51:06;;;;;;;22.10;11.53;;;;;;;24.14;71.34;99272.75;4974855;28;20193;-85
2022/07/22 00:53:32;;;;;;;17.40;11.80;;;;;;;21.77;72.53;98863.94;4975510;28;20180;-87
2022/07/22 00:55:58;;;;;;;19.40;11.07;;;;;;;21.32;73.14;98787.91;4974420;28;20179;-86
2022/07/22 00:58:24;;;;;;;17.17;9.90;;;;;;;23.21;74.05;99117.88;4974507;28;20184;-86
2022/07/22 01:00:49;;;;;;;9.67;7.63;;;;;;;21.85;73.90;98908.50;4974291;28;20311;-86
2022/07/22 01:03:16;;;;;;;10.10;7.27;;;;;;;20.21;73.47;98666.97;4973082;28;20879;-90
2022/07/22 01:05:42;;;;;;;11.83;7.80;;;;;;;20.48;74.13;98746.53;4973642;28;20180;-87
2022/07/22 01:08:08;;;;;;;11.90;7.33;;;;;;;19.91;73.42;98626.06;4973809;28;20176;-87
2022/07/22 01:10:34;;;;;;;10.03;7.30;;;;;;;21.01;73.85;98833.63;4973144;28;20563;-89
2022/07/22 01:12:59;;;;;;;17.60;7.80;;;;;;;20.70;72.87;98775.53;4974346;28;20176;-89
2022/07/22 01:15:25;;;;;;;13.37;7.80;;;;;;;20.46;72.94;98740.50;4989249;28;20184;-88
2022/07/22 01:17:50;;;;;;;10.97;7.00;;;;;;;21.38;73.34;98900.31;4974907;28;20195;-87
2022/07/22 01:20:16;;;;;;;10.17;7.47;;;;;;;21.95;73.19;99012.44;4972515;28;20211;-85
2022/07/22 01:22:41;;;;;;;11.80;7.43;;;;;;;22.87;72.17;99133.72;4969927;28;20180;-86
2022/07/22 01:25:07;;;;;;;11.07;7.70;;;;;;;21.86;71.79;98942.88;4980082;28;20199;-87
2022/07/22 01:27:33;;;;;;;10.50;7.53;;;;;;;23.59;72.29;99254.41;4977663;28;20196;-87
2022/07/22 01:29:58;;;;;;;10.90;7.60;;;;;;;20.07;72.61;98680.75;4974609;28;20168;-86
2022/07/22 01:32:24;;;;;;;10.13;7.87;;;;;;;19.75;72.70;98650.13;4966907;28;20176;-87
2022/07/22 01:34:50;;;;;;;11.97;7.90;;;;;;;21.69;73.56;98963.63;4954416;28;20196;-88
2022/07/22 01:37:15;;;;;;;11.90;7.60;;;;;;;23.27;74.70;99254.69;4953250;29;20203;-89
2022/07/22 01:39:41;;;;;;;10.83;7.30;;;;;;;20.88;74.39;98857.72;4954481;28;20183;-88
2022/07/22 01:42:07;;;;;;;12.53;7.40;;;;;;;22.04;74.01;99043.28;4958518;28;20172;-89
2022/07/22 01:44:32;;;;;;;12.80;7.70;;;;;;;21.32;73.83;98921.81;4972077;28;20168;-86
2022/07/22 01:46:58;;;;;;;12.40;7.60;;;;;;;19.90;74.22;98691.13;4953501;28;20703;-87
2022/07/22 01:49:24;;;;;;;12.10;7.70;;;;;;;20.15;73.71;98732.97;4953027;28;20633;-88
2022/07/22 01:51:50;;;;;;;12.53;7.90;;;;;;;20.92;73.65;98843.13;4956260;28;20228;-88
2022/07/22 01:54:15;;;;;;;10.63;7.70;;;;;;;20.99;73.82;98865.38;4986636;28;20183;-87
2022/07/22 01:56:41;;;;;;;11.97;7.83;;;;;;;20.09;73.12;98726.16;4976912;28;20207;-89
2022/07/22 01:59:07;;;;;;;10.47;7.93;;;;;;;20.57;74.78;98843.34;4954390;28;20633;-88
2022/07/22 02:01:33;;;;;;;10.70;8.03;;;;;;;19.18;75.71;98634.03;4954306;28;20205;-88
2022/07/22 02:03:58;;;;;;;32.90;18.37;;;;;;;20.57;76.23;98839.03;4972736;28;21810;-88
2022/07/22 02:06:24;;;;;;;18.90;12.03;;;;;;;19.72;76.31;98724.63;4973298;28;20694;-88
2022/07/22 02:08:49;;;;;;;14.87;10.17;;;;;;;20.75;76.37;98902.41;4988524;28;20168;-86
2022/07/22 02:11:14;;;;;;;13.70;9.57;;;;;;;21.78;76.63;99077.78;4973197;28;20171;-87
2022/07/22 02:13:40;;;;;;;12.17;8.93;;;;;;;20.19;75.85;98812.63;4973175;28;20220;-87
2022/07/22 02:16:05;;;;;;;11.37;8.67;;;;;;;20.15;76.24;98810.06;4973097;28;20180;-87
2022/07/22 02:18:31;;;;;;;13.43;8.70;;;;;;;21.12;75.72;98976.00;4973997;28;20174;-86
2022/07/22 02:20:56;;;;;;;12.90;8.60;;;;;;;20.68;76.28;98911.03;4973408;28;20603;-87
2022/07/22 02:23:22;;;;;;;11.57;8.87;;;;;;;21.45;77.51;99048.81;4959825;28;20177;-87
2022/07/22 02:25:48;;;;;;;12.97;9.00;;;;;;;20.97;77.95;98994.09;4954088;28;20260;-89
2022/07/22 02:28:13;;;;;;;11.53;8.93;;;;;;;20.31;76.81;98889.75;4955005;28;20176;-88
2022/07/22 02:30:39;;;;;;;16.90;9.17;;;;;;;20.38;75.83;98917.13;4953619;28;20184;-88
2022/07/22 02:33:05;;;;;;;11.60;8.70;;;;;;;19.08;76.68;98686.25;4964638;28;20242;-88
2022/07/22 02:35:32;;;;;;;11.03;8.80;;;;;;;20.70;76.93;98981.34;4971157;28;20218;-87
2022/07/22 02:38:00;;;;;;;10.77;9.30;;;;;;;18.59;77.56;98600.81;4954975;28;20168;-87
2022/07/22 02:40:25;;;;;;;15.17;9.20;;;;;;;19.80;77.76;98817.91;4955067;28;20597;-88
2022/07/22 02:42:51;;;;;;;16.57;9.10;;;;;;;19.52;78.03;98765.75;4963988;28;20315;-88
2022/07/22 02:45:16;;;;;;;13.53;9.80;;;;;;;18.29;78.67;98581.13;4972882;28;20184;-88
2022/07/22 02:47:50;;;;;;;17.67;10.10;;;;;;;20.16;78.86;98863.19;4962475;28;20702;-87
2022/07/22 02:50:15;;;;;;;14.57;10.83;;;;;;;20.50;79.96;98949.66;4952024;28;20188;-87
2022/07/22 02:52:44;;;;;;;15.93;10.80;;;;;;;20.60;80.31;98983.06;4955314;28;20168;-88
2022/07/22 02:55:10;;;;;;;15.40;10.47;;;;;;;21.04;81.75;99077.28;4962021;28;20258;-86
2022/07/22 02:57:36;;;;;;;15.17;10.50;;;;;;;17.95;84.01;98574.31;4975130;28;20164;-87
2022/07/22 03:00:03;;;;;;;20.80;11.50;;;;;;;17.65;87.29;98566.56;4989094;28;20200;-87
2022/07/22 03:02:29;;;;;;;13.27;11.50;;;;;;;18.09;86.52;98631.53;4967156;28;20220;-88
2022/07/22 03:04:54;;;;;;;17.40;11.93;;;;;;;18.23;86.31;98660.59;4953934;28;20184;-88
2022/07/22 03:07:22;;;;;;;17.47;12.00;;;;;;;19.26;84.82;98819.66;4953527;28;20197;-86
2022/07/22 03:09:48;;;;;;;19.47;14.23;;;;;;;19.12;85.18;98803.38;4960798;28;20180;-86
2022/07/22 03:12:13;;;;;;;28.77;15.13;;;;;;;21.58;85.88;99218.78;4970021;28;20700;-87
2022/07/22 03:14:38;;;;;;;18.60;12.93;;;;;;;18.09;87.24;98644.34;4955828;28;20184;-86
2022/07/22 03:17:04;;;;;;;17.17;12.97;;;;;;;18.00;87.02;98653.69;4954914;28;20161;-85
2022/07/22 03:19:29;;;;;;;18.97;11.93;;;;;;;19.03;94.69;98854.72;4954572;28;20559;-88
2022/07/22 03:21:55;;;;;;;17.57;11.93;;;;;;;19.20;95.84;98870.13;4968173;28;20179;-86
2022/07/22 03:24:20;;;;;;;16.37;11.63;;;;;;;19.20;93.99;98859.88;4985993;28;20200;-87
2022/07/22 03:26:46;;;;;;;16.60;11.80;;;;;;;17.37;99.15;98596.31;4975972;28;20204;-87
2022/07/22 03:29:11;;;;;;;20.53;12.40;;;;;;;17.87;100.00;98681.00;4973340;28;20180;-87
2022/07/22 03:31:37;;;;;;;18.10;12.17;;;;;;;17.47;100.00;98592.09;4973759;28;20256;-86
2022/07/22 03:34:02;;;;;;;16.93;11.70;;;;;;;20.50;100.00;99081.69;4957001;28;20189;-88
2022/07/22 03:36:31;;;;;;;19.90;14.83;;;;;;;20.93;100.00;99133.09;4955081;28;20157;-87
2022/07/22 03:38:56;;;;;;;24.37;15.93;;;;;;;19.36;100.00;98874.41;4954287;28;20173;-88
2022/07/22 03:41:22;;;;;;;25.23;16.13;;;;;;;17.93;100.00;98644.31;4972858;28;20183;-86
2022/07/22 03:43:48;;;;;;;27.20;16.80;;;;;;;21.72;98.47;99236.78;4960334;28;20177;-87
2022/07/22 03:46:13;;;;;;;29.73;17.00;;;;;;;21.15;96.88;99109.03;4967608;28;20208;-87
2022/07/22 03:48:39;;;;;;;26.97;16.87;;;;;;;21.37;94.73;99118.38;4972537;28;20199;-86
2022/07/22 03:51:05;;;;;;;31.23;18.37;;;;;;;18.28;96.45;98617.03;4955642;28;20188;-87
2022/07/22 03:53:32;;;;;;;19.23;12.37;;;;;;;18.52;94.35;98631.56;4954160;28;20547;-87
2022/07/22 03:55:58;;;;;;;20.40;14.13;;;;;;;20.45;95.62;98967.69;4957466;28;20169;-87
2022/07/22 03:58:24;;;;;;;19.00;12.53;;;;;;;19.60;94.49;98860.75;4956522;28;20168;-86
2022/07/22 04:00:49;;;;;;;17.50;12.40;;;;;;;21.79;93.86;99228.13;4971566;28;20588;-86
2022/07/22 04:03:15;;;;;;;16.00;12.37;;;;;;;21.48;93.43;99160.41;4965840;28;20432;-86
2022/07/22 04:05:40;;;;;;;20.67;13.10;;;;;;;18.45;91.65;98637.53;4975292;28;20242;-87
2022/07/22 04:08:06;;;;;;;22.87;13.20;;;;;;;18.36;90.53;98583.69;4957258;28;20201;-86
2022/07/22 04:10:32;;;;;;;18.03;13.63;;;;;;;19.86;90.10;98843.59;4956020;28;20514;-86
2022/07/22 04:12:57;;;;;;;17.67;12.87;;;;;;;19.63;89.54;98789.69;4962149;28;20187;-85
2022/07/22 04:15:23;;;;;;;24.57;13.43;;;;;;;22.36;89.84;99260.53;4974708;28;20186;-86
2022/07/22 04:17:48;;;;;;;19.70;14.13;;;;;;;20.34;89.36;98897.44;4968943;28;20332;-86
2022/07/22 04:20:14;;;;;;;18.67;13.10;;;;;;;21.35;87.53;99041.97;4971706;28;20204;-88
2022/07/22 04:22:39;;;;;;;18.87;13.33;;;;;;;22.14;88.50;99171.28;4967384;28;20184;-85
2022/07/22 04:25:05;;;;;;;27.43;16.97;;;;;;;21.29;89.34;98988.78;4964051;28;20275;-85
2022/07/22 04:27:30;;;;;;;24.47;16.27;;;;;;;21.45;89.20;99003.28;4960002;28;20236;-87
2022/07/22 04:29:56;;;;;;;25.33;15.00;;;;;;;21.36;88.49;99000.78;4986245;28;20242;-87
2022/07/22 04:32:22;;;;;;;26.23;15.43;;;;;;;21.64;87.42;99032.38;4955668;28;20184;-85
2022/07/22 04:34:47;;;;;;;39.00;20.00;;;;;;;23.11;84.28;99253.13;4973495;28;20187;-87
2022/07/22 04:37:13;;;;;;;31.00;18.03;;;;;;;23.01;83.99;99228.28;4972629;28;20199;-87
2022/07/22 04:39:38;;;;;;;37.60;20.83;;;;;;;22.43;86.14;99199.44;4973034;28;20188;-87
2022/07/22 04:42:04;;;;;;;29.37;17.43;;;;;;;21.31;86.08;98992.25;4972558;28;20607;-87
2022/07/22 04:44:29;;;;;;;27.00;15.80;;;;;;;22.61;84.62;99187.25;4972701;28;20185;-86
2022/07/22 04:46:55;;;;;;;25.43;15.30;;;;;;;22.58;86.36;99227.75;4972312;28;20204;-87
2022/07/22 04:49:20;;;;;;;27.10;16.80;;;;;;;21.59;87.15;99086.50;4973706;28;20188;-85
2022/07/22 04:51:45;;;;;;;25.27;16.10;;;;;;;22.66;87.46;99262.13;4972847;28;20184;-86
2022/07/22 04:54:11;;;;;;;25.40;15.80;;;;;;;22.10;88.13;99182.47;4972901;28;20176;-87
2022/07/22 04:56:36;;;;;;;23.17;15.93;;;;;;;20.77;85.27;98931.53;4972461;28;20330;-86
2022/07/22 04:59:02;;;;;;;33.40;17.80;;;;;;;20.52;83.43;98857.91;4968004;28;20181;-86
2022/07/22 05:01:27;;;;;;;31.03;19.40;;;;;;;21.87;81.72;99060.59;4988684;28;20195;-88
2022/07/22 05:03:53;;;;;;;28.27;19.87;;;;;;;23.11;81.83;99266.03;4972252;28;20222;-90
2022/07/22 05:06:19;;;;;;;31.90;19.23;;;;;;;23.40;78.83;99253.75;4971814;28;20196;-87
2022/07/22 05:08:44;;;;;;;27.23;18.20;;;;;;;23.42;78.82;99263.22;4968677;28;20189;-87
2022/07/22 05:11:10;;;;;;;34.80;21.93;;;;;;;23.63;77.66;99254.34;4961058;28;20168;-87
2022/07/22 05:13:35;;;;;;;32.53;20.47;;;;;;;22.26;75.59;99013.88;4968341;28;20192;-88
2022/07/22 05:16:05;;;;;;;32.60;19.70;;;;;;;23.19;74.11;99124.75;4947114;28;20218;-90
2022/07/22 05:18:31;;;;;;;33.00;19.53;;;;;;;22.78;72.64;99025.41;4972165;28;20180;-86
2022/07/22 05:20:56;;;;;;;30.80;20.37;;;;;;;23.80;74.57;99249.84;4986068;28;20699;-86
2022/07/22 05:23:21;;;;;;;32.23;19.97;;;;;;;23.79;73.14;99216.25;4965514;28;20259;-86
2022/07/22 05:25:47;;;;;;;25.47;18.17;;;;;;;23.26;73.54;99085.94;4954935;28;20184;-86
2022/07/22 05:28:12;;;;;;;28.60;18.90;;;;;;;23.48;74.05;99161.50;4952978;28;20215;-85
2022/07/22 05:30:38;;;;;;;32.73;19.87;;;;;;;23.19;73.42;99086.03;4968288;28;20198;-86
2022/07/22 05:33:03;;;;;;;29.73;20.50;;;;;;;23.65;72.10;99125.94;4972014;28;20188;-85
2022/07/22 05:35:29;;;;;;;30.10;20.27;;;;;;;23.70;71.63;99116.44;4972415;28;20202;-86
2022/07/22 05:37:54;;;;;;;29.10;20.10;;;;;;;23.75;70.88;99131.84;4972335;28;20202;-87
2022/07/22 05:40:20;;;;;;;28.20;19.83;;;;;;;24.20;71.15;99176.97;4971157;28;20180;-86
2022/07/22 05:42:45;;;;;;;26.37;19.03;;;;;;;23.61;70.97;99077.75;4970983;28;20195;-87
2022/07/22 05:45:10;;;;;;;26.43;17.93;;;;;;;22.90;70.77;98950.41;4971598;28;20578;-87
2022/07/22 05:47:36;;;;;;;31.40;18.80;;;;;;;23.99;72.18;99189.28;4971651;28;20302;-86
2022/07/22 05:50:02;;;;;;;25.50;18.37;;;;;;;22.92;72.72;98983.94;4985687;28;20187;-86
2022/07/22 05:52:27;;;;;;;31.40;18.27;;;;;;;21.99;69.36;98757.19;4971075;28;20853;-86
2022/07/22 05:54:53;;;;;;;28.73;18.03;;;;;;;24.98;68.72;99226.63;4984847;28;20191;-88
2022/07/22 05:57:18;;;;;;;29.90;18.50;;;;;;;24.71;67.95;99172.69;4983777;28;20191;-87
2022/07/22 05:59:44;;;;;;;28.80;17.67;;;;;;;24.23;65.59;99026.84;4959537;28;20184;-87
2022/07/22 06:02:09;;;;;;;28.10;18.27;;;;;;;22.13;68.24;98713.19;4983075;28;20236;-86
2022/07/22 06:04:34;;;;;;;26.80;17.23;;;;;;;22.97;66.80;98829.81;4980351;28;20757;-87
2022/07/22 06:07:00;;;;;;;27.40;17.77;;;;;;;25.74;65.36;99241.66;4971934;28;20223;-88
2022/07/22 06:09:26;;;;;;;24.50;15.67;;;;;;;24.23;63.03;98954.41;4977908;28;20247;-87
2022/07/22 06:11:51;;;;;;;25.90;14.50;;;;;;;25.00;59.84;99034.03;4991541;28;20183;-86
2022/07/22 06:14:16;;;;;;;22.33;16.87;;;;;;;24.11;58.58;98848.56;4986410;28;20192;-87
2022/07/22 06:16:42;;;;;;;22.10;16.20;;;;;;;24.43;57.24;98890.19;4976171;28;20291;-87
2022/07/22 06:19:07;;;;;;;25.03;16.83;;;;;;;26.11;58.78;99224.44;4970747;28;20651;-87
2022/07/22 06:21:33;;;;;;;23.63;15.83;;;;;;;25.20;57.66;99052.63;4971996;28;20462;-88
2022/07/22 06:23:58;;;;;;;28.57;15.90;;;;;;;25.22;56.06;99022.34;4975929;28;20184;-88
2022/07/22 06:26:24;;;;;;;29.37;15.70;;;;;;;25.34;55.62;98982.34;4971848;28;20210;-87
2022/07/22 06:28:49;;;;;;;21.67;16.70;;;;;;;25.95;55.26;99051.84;4971236;28;20186;-87
2022/07/22 06:31:16;;;;;;;26.23;16.13;;;;;;;26.30;55.74;99134.94;4974570;28;20218;-89
2022/07/22 06:33:42;;;;;;;20.40;16.03;;;;;;;26.98;53.54;99212.91;4985464;28;20275;-86
2022/07/22 06:36:07;;;;;;;23.20;15.33;;;;;;;26.67;54.25;99206.75;4972072;28;20553;-87
2022/07/22 06:38:33;;;;;;;25.43;15.83;;;;;;;26.32;53.73;99112.38;4972013;28;20180;-88
2022/07/22 06:40:58;;;;;;;23.60;15.13;;;;;;;26.12;54.36;99082.59;4971991;28;20184;-88
2022/07/22 06:43:24;;;;;;;17.53;13.27;;;;;;;25.63;53.53;99020.59;4972126;28;20180;-88
2022/07/22 06:45:50;;;;;;;20.20;14.40;;;;;;;26.05;54.06;99104.34;4985574;28;20187;-85
2022/07/22 06:48:28;;;;;;;20.53;14.23;;;;;;;25.50;52.34;98936.22;4970058;28;20329;-88
2022/07/22 06:50:54;;;;;;;18.02;13.32;;;;;;;27.30;51.95;99210.34;4971054;28;20191;-88
2022/07/22 06:53:20;;;;;;;18.48;13.15;;;;;;;27.44;50.86;99205.63;4985768;28;20192;-87
2022/07/22 06:55:45;;;;;;;16.30;12.80;;;;;;;26.23;50.34;98980.22;4971049;28;20192;-88
2022/07/22 06:58:11;;;;;;;18.83;12.63;;;;;;;27.90;50.41;99201.75;4971967;28;20567;-86
2022/07/22 07:00:39;;;;;;;14.07;11.10;;;;;;;27.32;49.66;99203.34;4971526;28;20573;-87
2022/07/22 07:03:04;;;;;;;15.95;11.55;;;;;;;28.25;47.76;99222.38;4969798;28;20234;-88
2022/07/22 07:05:30;;;;;;;13.38;9.50;;;;;;;28.15;46.59;99135.06;4969179;28;20555;-88
2022/07/22 07:08:06;;;;;;;15.93;9.63;;;;;;;25.91;45.34;98736.31;4970283;28;20223;-89
2022/07/22 07:10:31;;;;;;;14.93;10.63;;;;;;;28.24;47.55;99218.06;4968892;28;20183;-87
2022/07/22 07:12:58;;;;;;;15.88;10.80;;;;;;;28.99;46.96;99225.22;4952022;28;20183;-87
2022/07/22 07:15:25;;;;;;;11.23;9.00;;;;;;;28.49;46.35;99221.63;4955110;28;20197;-87
2022/07/22 07:17:52;;;;;;;14.43;10.32;;;;;;;27.97;48.89;99218.88;4961367;28;20245;-87
2022/07/22 07:20:17;;;;;;;16.30;10.35;;;;;;;28.22;48.13;99193.84;4970748;28;20195;-88
2022/07/22 07:22:43;;;;;;;16.83;10.63;;;;;;;28.56;48.30;99225.75;4970792;28;20187;-89
2022/07/22 07:25:17;;;;;;;14.73;10.75;;;;;;;28.39;47.53;99182.88;4971081;28;20271;-88
2022/07/22 07:27:43;;;;;;;16.10;11.15;;;;;;;28.05;46.74;99060.72;4972002;28;20236;-85
2022/07/22 07:30:09;;;;;;;16.17;11.77;;;;;;;28.63;46.98;99216.84;4978771;28;20185;-87
2022/07/22 07:32:36;;;;;;;16.33;11.90;;;;;;;29.11;46.58;99229.19;4971239;28;20184;-88
2022/07/22 07:35:05;;;;;;;13.85;10.30;;;;;;;28.87;46.24;99108.31;4974036;28;20635;-87
2022/07/22 07:37:31;;;;;;;15.95;11.85;;;;;;;29.18;46.01;99217.63;4956361;28;20191;-87
2022/07/22 07:39:58;;;;;;;13.63;11.98;;;;;;;29.76;45.25;99224.25;4955567;28;20661;-88
2022/07/22 07:42:24;;;;;;;16.50;11.45;;;;;;;29.97;43.95;99218.25;4968710;28;20193;-89
2022/07/22 07:44:49;;;;;;;13.77;11.88;;;;;;;28.05;44.00;98927.97;4974089;28;20184;-87
2022/07/22 07:47:17;;;;;;;18.67;12.55;;;;;;;28.06;45.11;98994.75;4974029;28;20285;-88
2022/07/22 07:49:47;;;;;;;14.13;11.27;;;;;;;29.80;44.94;99223.28;4988890;28;20683;-89
2022/07/22 07:52:13;;;;;;;13.20;11.27;;;;;;;28.97;43.49;99048.91;4990169;28;20301;-86
2022/07/22 07:54:40;;;;;;;18.85;11.85;;;;;;;30.59;42.29;99223.69;4974024;28;20184;-87
2022/07/22 07:57:06;;;;;;;17.98;12.38;;;;;;;29.88;40.99;99095.06;4973652;28;20196;-87
2022/07/22 07:59:32;;;;;;;20.95;12.50;;;;;;;29.04;41.14;98931.31;4973803;28;20612;-87
2022/07/22 08:01:58;;;;;;;20.38;13.50;;;;;;;30.83;40.86;99195.69;4963674;28;20289;-88
2022/07/22 08:04:23;;;;;;;17.55;12.80;;;;;;;30.00;40.48;99024.06;4969238;28;20362;-87
2022/07/22 08:06:49;;;;;;;19.23;13.73;;;;;;;28.21;40.66;98743.47;4983030;28;20209;-88
2022/07/22 08:09:14;;;;;;;15.68;13.02;;;;;;;30.67;40.52;99131.91;4974578;28;20212;-87
2022/07/22 08:11:40;;;;;;;16.90;13.23;;;;;;;30.25;39.27;98993.41;4973651;28;20670;-87
2022/07/22 08:14:05;;;;;;;15.35;12.70;;;;;;;31.81;38.50;99209.72;4973399;28;20269;-86
2022/07/22 08:16:33;;;;;;;19.30;14.30;;;;;;;31.74;38.51;99176.91;4972355;28;20234;-86
2022/07/22 08:18:59;;;;;;;24.63;15.07;;;;;;;31.55;40.14;99212.69;4964683;28;20230;-88
2022/07/22 08:21:25;;;;;;;22.05;16.10;;;;;;;30.20;40.22;99029.34;4971971;28;20245;-87
2022/07/22 08:23:51;;;;;;;22.65;14.40;;;;;;;31.79;39.04;99193.25;4971824;28;20186;-90
2022/07/22 08:26:16;;;;;;;23.20;14.38;;;;;;;30.46;38.06;98921.16;4988195;28;20214;-87
2022/07/22 08:28:42;;;;;;;17.08;13.88;;;;;;;31.19;38.05;99059.91;4973639;28;20282;-88
2022/07/22 08:31:07;;;;;;;17.83;12.55;;;;;;;30.61;37.02;98946.59;4972744;28;20201;-87
2022/07/22 08:33:33;;;;;;;18.60;12.68;;;;;;;31.32;36.56;99029.63;4955419;28;20207;-86
2022/07/22 08:35:59;;;;;;;14.77;12.20;;;;;;;31.59;37.22;99051.94;4955453;28;20184;-88
2022/07/22 08:38:24;;;;;;;17.63;11.57;;;;;;;31.74;36.65;99069.53;4953731;28;20274;-87
2022/07/22 08:40:54;;;;;;;17.88;11.23;;;;;;;31.54;37.12;99091.41;4953525;28;20692;-86
2022/07/22 08:43:19;;;;;;;15.40;10.88;;;;;;;31.47;36.47;99082.16;4968720;28;20227;-86
2022/07/22 08:45:45;;;;;;;15.35;11.75;;;;;;;29.58;36.54;98727.41;4988246;28;20208;-87
2022/07/22 08:48:13;;;;;;;16.92;11.30;;;;;;;29.59;37.08;98720.41;4972645;28;20699;-87
2022/07/22 08:50:59;;;;;;;13.98;11.02;;;;;;;32.23;36.70;99130.06;4972619;28;20274;-87
2022/07/22 08:53:25;;;;;;;20.92;12.80;;;;;;;30.80;36.25;98893.41;4959954;28;20192;-88
2022/07/22 08:56:00;;;;;;;16.40;12.30;;;;;;;30.43;36.95;98880.34;4971485;28;20194;-88
2022/07/22 08:58:27;;;;;;;14.30;11.75;;;;;;;30.85;37.24;99032.59;4987930;28;20194;-90
2022/07/22 09:01:09;;;;;;;13.90;11.55;;;;;;;31.81;37.90;99224.63;4971481;28;20241;-88
2022/07/22 09:04:02;;;;;;;19.35;12.60;;;;;;;31.66;36.96;99065.59;4972231;28;20218;-91
2022/07/22 09:06:33;;;;;;;21.13;12.52;;;;;;;33.04;36.44;99228.31;4971507;28;20239;-90
2022/07/22 09:09:07;;;;;;;16.63;12.75;;;;;;;33.65;34.88;99219.94;4986506;28;20283;-88
2022/07/22 09:11:33;;;;;;;20.35;13.57;;;;;;;31.12;33.97;98769.00;4969665;28;20182;-88
2022/07/22 09:14:04;;;;;;;14.65;12.70;;;;;;;30.74;34.79;98725.53;4970639;28;20187;-88
2022/07/22 09:16:46;;;;;;;20.27;13.98;;;;;;;30.76;35.11;98732.41;4975244;28;20191;-87
2022/07/22 09:19:14;;;;;;;17.48;13.85;;;;;;;32.40;35.27;99061.97;4961428;28;20234;-88
2022/07/22 09:21:42;;;;;;;19.27;14.48;;;;;;;32.53;34.51;99021.09;4966691;28;20181;-89
2022/07/22 09:24:07;;;;;;;17.63;14.10;;;;;;;32.66;34.14;99037.94;4970132;28;20188;-89
2022/07/22 09:26:38;;;;;;;22.30;14.60;;;;;;;31.57;34.35;98874.94;4971749;28;20206;-87
2022/07/22 09:29:05;;;;;;;20.55;14.38;;;;;;;33.42;34.78;99215.84;4972073;28;20266;-88
2022/07/22 09:31:35;;;;;;;18.38;13.95;;;;;;;32.81;34.53;99016.13;4970123;28;20224;-88
2022/07/22 09:34:01;;;;;;;18.10;13.30;;;;;;;34.42;34.28;99216.53;4971377;28;20246;-86
2022/07/22 09:36:27;;;;;;;19.23;14.35;;;;;;;34.64;34.22;99213.53;4972170;28;20231;-85
2022/07/22 09:38:52;;;;;;;18.13;15.18;;;;;;;33.82;34.13;99212.00;4971099;28;20180;-88
2022/07/22 09:41:18;;;;;;;20.77;14.98;;;;;;;34.46;33.89;99221.59;4970170;28;20628;-86
2022/07/22 09:43:44;;;;;;;20.40;15.77;;;;;;;34.48;33.48;99169.78;4970915;28;20557;-87
2022/07/22 09:46:10;;;;;;;23.33;17.30;;;;;;;34.54;33.41;99170.28;4971394;28;20212;-87
2022/07/22 09:48:37;;;;;;;21.52;16.70;;;;;;;34.85;32.95;99217.59;4980740;28;20185;-85
2022/07/22 09:51:04;;;;;;;21.10;17.17;;;;;;;35.08;33.00;99211.00;4952238;28;20191;-87
2022/07/22 09:53:30;;;;;;;23.02;17.17;;;;;;;34.09;32.56;99018.66;4957077;28;20188;-86
2022/07/22 09:55:57;;;;;;;22.42;17.13;;;;;;;34.85;33.28;99211.47;4969937;28;20191;-86
2022/07/22 09:58:23;;;;;;;22.33;16.90;;;;;;;34.66;33.77;99208.22;4951894;29;20189;-84
2022/07/22 10:00:51;;;;;;;21.02;17.25;;;;;;;33.53;34.73;99187.25;4966925;28;20191;-87
2022/07/22 10:03:26;;;;;;;22.60;17.35;;;;;;;32.25;34.17;98890.63;4970250;28;20238;-86
2022/07/22 10:05:52;;;;;;;23.73;17.77;;;;;;;32.36;34.39;98885.66;4970878;28;20187;-85
2022/07/22 10:08:18;;;;;;;23.50;17.85;;;;;;;33.84;33.80;99099.81;4969615;28;20250;-88
2022/07/22 10:10:43;;;;;;;20.45;16.52;;;;;;;33.91;33.25;99105.53;4970006;28;20228;-84
2022/07/22 10:13:09;;;;;;;26.20;17.90;;;;;;;34.12;33.42;99033.41;4952878;28;20181;-85
2022/07/22 10:15:36;;;;;;;22.77;17.38;;;;;;;35.21;33.37;99198.81;4961514;28;20283;-87
2022/07/22 10:18:07;;;;;;;23.27;18.50;;;;;;;34.44;33.61;99044.69;4947934;28;20233;-85
2022/07/22 10:20:33;;;;;;;20.42;17.48;;;;;;;33.14;33.15;98896.28;4957669;28;20279;-85
2022/07/22 10:23:07;;;;;;;23.88;18.02;;;;;;;34.20;33.62;99107.44;4949341;28;20787;-83
2022/07/22 10:25:49;;;;;;;22.40;17.23;;;;;;;34.66;33.64;99142.47;4949804;28;20180;-86
2022/07/22 10:28:27;;;;;;;21.52;18.13;;;;;;;34.20;34.51;99187.09;4959327;28;20220;-87
2022/07/22 10:31:07;;;;;;;21.27;19.08;;;;;;;34.59;33.78;99183.19;4969256;28;20346;-86
2022/07/22 10:33:35;;;;;;;23.42;18.20;;;;;;;35.17;33.19;99178.00;4970301;28;20187;-88
2022/07/22 10:36:03;;;;;;;22.90;18.08;;;;;;;34.94;33.63;99098.59;4970484;28;20188;-84
2022/07/22 10:38:31;;;;;;;25.35;18.08;;;;;;;34.51;33.17;98957.44;4970870;28;20199;-83
2022/07/22 10:40:58;;;;;;;19.50;15.65;;;;;;;35.74;31.17;99181.53;4970242;28;20227;-84
2022/07/22 10:43:29;;;;;;;22.45;16.52;;;;;;;34.36;32.59;99014.41;4970576;28;20283;-85
2022/07/22 10:46:00;;;;;;;22.25;16.52;;;;;;;35.55;32.26;99167.81;4971723;28;20404;-85
2022/07/22 10:48:37;;;;;;;19.27;14.90;;;;;;;35.71;31.88;99172.00;4970394;28;20212;-84
2022/07/22 10:51:10;;;;;;;20.77;15.63;;;;;;;35.83;32.10;99168.63;4970535;28;20567;-83
2022/07/22 10:53:47;;;;;;;17.42;14.70;;;;;;;35.71;31.47;99165.94;4970998;28;20255;-83
2022/07/22 10:56:20;;;;;;;18.48;15.05;;;;;;;34.07;31.24;98904.91;4970430;28;20190;-85
2022/07/22 10:58:51;;;;;;;21.35;15.30;;;;;;;34.23;32.08;98928.47;4968966;28;20290;-86
2022/07/22 11:01:19;;;;;;;19.33;14.63;;;;;;;34.96;31.59;99088.00;4969986;28;20695;-85
2022/07/22 11:03:47;;;;;;;19.23;13.80;;;;;;;35.40;31.16;99156.41;4971370;28;20219;-84
2022/07/22 11:06:16;;;;;;;18.58;14.20;;;;;;;35.32;31.84;99134.97;4973850;28;20571;-84
2022/07/22 11:08:43;;;;;;;20.25;14.73;;;;;;;34.61;31.73;98997.22;4974486;28;20575;-86
2022/07/22 11:11:08;;;;;;;15.57;13.80;;;;;;;34.96;30.52;99015.19;4974540;28;20271;-89
2022/07/22 11:13:36;;;;;;;17.85;13.40;;;;;;;35.96;30.71;99155.50;4989813;28;20816;-87
2022/07/22 11:16:15;;;;;;;15.18;12.95;;;;;;;36.07;30.61;99150.41;4974761;28;20645;-87
2022/07/22 11:18:58;;;;;;;14.55;11.50;;;;;;;35.40;31.01;99067.72;4964871;28;20315;-85